createdAt,value
2018-12-17T00:01:39.074Z,18.20
2018-12-17T00:04:08.884Z,17.07
2018-12-17T00:06:38.866Z,17.07
2018-12-17T00:09:09.179Z,17.37
2018-12-17T00:11:39.457Z,16.20
2018-12-17T00:14:09.445Z,15.80
2018-12-17T00:16:39.298Z,17.57
2018-12-17T00:19:09.128Z,18.53
2018-12-17T00:21:38.819Z,19.03
2018-12-17T00:24:08.753Z,18.80
2018-12-17T00:26:38.418Z,16.67
2018-12-17T00:29:08.179Z,15.63
2018-12-17T00:31:37.988Z,19.77
2018-12-17T00:34:07.738Z,18.17
2018-12-17T00:36:37.540Z,16.13
2018-12-17T00:39:08.679Z,17.33
2018-12-17T00:41:38.484Z,17.97
2018-12-17T00:44:08.318Z,15.87
2018-12-17T00:46:38.080Z,16.93
2018-12-17T00:49:07.944Z,18.00
2018-12-17T00:51:37.856Z,17.60
2018-12-17T00:54:07.657Z,20.33
2018-12-17T00:56:37.276Z,19.57
2018-12-17T00:59:07.196Z,15.53
2018-12-17T01:01:36.931Z,20.63
2018-12-17T01:04:07.039Z,15.70
2018-12-17T01:06:36.967Z,17.57
2018-12-17T01:09:10.716Z,19.53
2018-12-17T01:11:40.397Z,20.30
2018-12-17T01:14:10.195Z,17.67
2018-12-17T01:16:39.928Z,19.53
2018-12-17T01:19:09.632Z,15.10
2018-12-17T01:21:39.321Z,16.03
2018-12-17T01:24:09.181Z,17.07
2018-12-17T01:26:38.903Z,15.83
2018-12-17T01:29:08.667Z,16.67
2018-12-17T01:31:38.415Z,18.47
2018-12-17T01:34:08.218Z,16.80
2018-12-17T01:36:38.052Z,17.20
2018-12-17T01:39:08.533Z,16.97
2018-12-17T01:41:38.365Z,16.10
2018-12-17T01:44:08.073Z,18.90
2018-12-17T01:46:37.816Z,16.40
2018-12-17T01:49:07.508Z,20.77
2018-12-17T01:51:38.130Z,16.73
2018-12-17T01:54:07.869Z,18.70
2018-12-17T01:56:37.513Z,17.03
2018-12-17T01:59:07.359Z,14.60
2018-12-17T02:01:37.308Z,16.23
2018-12-17T02:04:07.520Z,17.47
2018-12-17T02:06:37.416Z,16.73
2018-12-17T02:09:08.762Z,14.20
2018-12-17T02:11:39.291Z,15.37
2018-12-17T02:14:09.213Z,15.67
2018-12-17T02:16:38.976Z,13.97
2018-12-17T02:19:08.982Z,16.07
2018-12-17T02:21:38.724Z,16.23
2018-12-17T02:24:08.452Z,16.23
2018-12-17T02:26:38.135Z,15.67
2018-12-17T02:29:07.880Z,16.60
2018-12-17T02:31:37.772Z,13.70
2018-12-17T02:34:07.664Z,15.17
2018-12-17T02:36:37.534Z,14.10
2018-12-17T02:39:09.100Z,13.17
2018-12-17T02:41:39.094Z,14.20
2018-12-17T02:44:08.816Z,13.73
2018-12-17T02:46:39.248Z,13.87
2018-12-17T02:49:09.353Z,13.97
2018-12-17T02:51:39.616Z,13.67
2018-12-17T02:54:09.377Z,16.60
2018-12-17T02:56:39.064Z,12.10
2018-12-17T02:59:08.948Z,14.67
2018-12-17T03:01:38.838Z,12.57
2018-12-17T03:04:08.876Z,13.97
2018-12-17T03:06:38.897Z,14.23
2018-12-17T03:09:08.623Z,13.47
2018-12-17T03:11:38.374Z,12.07
2018-12-17T03:14:08.225Z,12.20
2018-12-17T03:16:37.898Z,12.83
2018-12-17T03:19:07.557Z,11.30
2018-12-17T03:21:37.220Z,12.00
2018-12-17T03:24:07.050Z,14.50
2018-12-17T03:26:36.858Z,12.80
2018-12-17T03:29:06.760Z,12.33
2018-12-17T03:31:36.780Z,11.83
2018-12-17T03:34:06.667Z,12.30
2018-12-17T03:36:36.549Z,12.40
2018-12-17T03:39:07.999Z,13.23
2018-12-17T03:41:38.241Z,11.67
2018-12-17T03:44:08.021Z,12.97
2018-12-17T03:46:37.707Z,11.87
2018-12-17T03:49:07.662Z,13.27
2018-12-17T03:51:37.756Z,13.57
2018-12-17T03:54:07.453Z,10.43
2018-12-17T03:56:37.345Z,12.30
2018-12-17T03:59:07.157Z,11.20
2018-12-17T04:01:37.093Z,12.27
2018-12-17T04:04:06.821Z,9.87
2018-12-17T04:06:36.626Z,10.40
2018-12-17T04:09:07.961Z,14.33
2018-12-17T04:11:37.762Z,11.70
2018-12-17T04:14:07.491Z,9.87
2018-12-17T04:16:37.552Z,9.27
2018-12-17T04:19:07.421Z,11.50
2018-12-17T04:21:37.226Z,8.57
2018-12-17T04:24:07.233Z,7.70
2018-12-17T04:26:37.034Z,12.03
2018-12-17T04:29:07.311Z,7.20
2018-12-17T04:31:37.299Z,9.00
2018-12-17T04:34:07.338Z,8.30
2018-12-17T04:36:37.095Z,8.83
2018-12-17T04:39:08.168Z,8.43
2018-12-17T04:41:38.041Z,7.23
2018-12-17T04:44:07.778Z,7.50
2018-12-17T04:46:37.717Z,9.87
2018-12-17T04:49:07.501Z,8.33
2018-12-17T04:51:37.176Z,10.20
2018-12-17T04:54:06.898Z,7.67
2018-12-17T04:56:36.553Z,8.57
2018-12-17T04:59:06.198Z,9.20
2018-12-17T05:01:36.235Z,8.57
2018-12-17T05:04:06.201Z,10.67
2018-12-17T05:06:36.030Z,11.93
2018-12-17T05:09:08.865Z,9.03
2018-12-17T05:11:38.720Z,8.20
2018-12-17T05:14:08.452Z,9.83
2018-12-17T05:16:39.242Z,7.53
2018-12-17T05:19:08.996Z,9.73
2018-12-17T05:21:38.798Z,8.40
2018-12-17T05:24:08.524Z,7.70
2018-12-17T05:26:38.306Z,8.13
2018-12-17T05:29:08.636Z,10.80
2018-12-17T05:31:38.376Z,9.00
2018-12-17T05:34:08.230Z,8.33
2018-12-17T05:36:38.221Z,8.93
2018-12-17T05:39:08.673Z,9.03
2018-12-17T05:41:38.401Z,8.77
2018-12-17T05:44:08.252Z,10.63
2018-12-17T05:46:38.132Z,9.37
2018-12-17T05:49:07.847Z,11.83
2018-12-17T05:51:37.655Z,10.10
2018-12-17T05:54:07.329Z,8.63
2018-12-17T05:56:37.245Z,8.77
2018-12-17T05:59:07.145Z,10.47
2018-12-17T06:01:37.827Z,10.10
2018-12-17T06:04:07.755Z,9.33
2018-12-17T06:06:37.696Z,9.10
2018-12-17T06:09:12.298Z,9.00
2018-12-17T06:11:42.319Z,9.97
2018-12-17T06:14:12.160Z,11.67
2018-12-17T06:16:42.016Z,8.57
2018-12-17T06:19:11.843Z,10.23
2018-12-17T06:21:41.811Z,7.93
2018-12-17T06:24:11.473Z,10.43
2018-12-17T06:26:41.131Z,9.73
2018-12-17T06:29:11.130Z,11.43
2018-12-17T06:31:41.909Z,10.47
2018-12-17T06:34:12.070Z,12.37
2018-12-17T06:36:42.960Z,10.60
2018-12-17T06:39:14.863Z,9.40
2018-12-17T06:41:44.787Z,13.37
2018-12-17T06:44:14.560Z,8.93
2018-12-17T06:46:44.295Z,13.97
2018-12-17T06:49:14.216Z,10.73
2018-12-17T06:51:44.327Z,11.67
2018-12-17T06:54:14.000Z,11.27
2018-12-17T06:56:43.820Z,10.97
2018-12-17T06:59:13.592Z,12.17
2018-12-17T07:01:43.367Z,15.33
2018-12-17T07:04:13.168Z,11.40
2018-12-17T07:06:42.996Z,12.50
2018-12-17T07:09:13.853Z,13.70
2018-12-17T07:11:43.811Z,15.47
2018-12-17T07:14:13.655Z,11.87
2018-12-17T07:16:43.490Z,12.03
2018-12-17T07:19:13.268Z,18.70
2018-12-17T07:21:43.096Z,16.33
2018-12-17T07:24:12.792Z,11.23
2018-12-17T07:26:42.644Z,14.70
2018-12-17T07:29:12.316Z,11.67
2018-12-17T07:31:42.155Z,13.00
2018-12-17T07:34:12.028Z,15.97
2018-12-17T07:36:41.908Z,13.60
2018-12-17T07:39:11.697Z,12.47
2018-12-17T07:41:41.517Z,12.83
2018-12-17T07:44:11.431Z,14.50
2018-12-17T07:46:41.255Z,13.97
2018-12-17T07:49:11.122Z,16.57
2018-12-17T08:00:41.428Z,14.63
2018-12-17T08:03:11.155Z,14.33
2018-12-17T08:06:44.082Z,17.27
2018-12-17T08:09:14.426Z,16.23
2018-12-17T08:11:44.555Z,17.70
2018-12-17T08:14:14.634Z,18.33
2018-12-17T08:16:44.702Z,16.10
2018-12-17T08:22:02.532Z,15.27
2018-12-17T08:24:32.275Z,17.97
2018-12-17T08:27:02.002Z,14.10
2018-12-17T08:29:31.917Z,15.30
2018-12-17T08:32:01.687Z,19.83
2018-12-17T08:34:32.083Z,17.40
2018-12-17T08:37:01.856Z,18.20
2018-12-17T08:39:31.722Z,15.43
2018-12-17T08:42:01.791Z,19.90
2018-12-17T08:44:31.843Z,14.60
2018-12-17T08:47:01.619Z,17.60
2018-12-17T08:49:31.586Z,18.50
2018-12-17T08:52:01.510Z,19.60
2018-12-17T08:54:31.623Z,20.53
2018-12-17T08:57:02.958Z,16.13
2018-12-17T08:59:32.922Z,13.07
2018-12-17T09:02:02.801Z,16.27
2018-12-17T09:04:32.607Z,14.97
2018-12-17T09:07:02.885Z,19.50
2018-12-17T09:09:32.681Z,15.53
2018-12-17T09:12:02.825Z,15.87
2018-12-17T09:14:32.637Z,15.57
2018-12-17T09:17:02.486Z,14.33
2018-12-17T09:19:32.804Z,19.97
2018-12-17T09:22:02.516Z,13.80
2018-12-17T09:24:33.152Z,13.70
2018-12-17T09:27:03.590Z,13.20
2018-12-17T09:29:33.548Z,14.03
2018-12-17T09:32:03.417Z,13.40
2018-12-17T09:34:33.553Z,13.47
2018-12-17T09:37:03.713Z,10.97
2018-12-17T09:39:33.572Z,10.90
2018-12-17T09:42:03.428Z,11.33
2018-12-17T09:44:33.329Z,11.23
2018-12-17T09:47:04.680Z,11.17
2018-12-17T09:49:34.709Z,13.67
2018-12-17T09:52:05.186Z,14.27
2018-12-17T09:54:35.002Z,12.13
2018-12-17T09:57:05.081Z,11.70
2018-12-17T09:59:34.818Z,13.20
2018-12-17T10:02:05.185Z,15.17
2018-12-17T10:04:34.949Z,13.77
2018-12-17T10:07:04.694Z,12.80
2018-12-17T10:09:34.612Z,13.00
2018-12-17T10:12:04.783Z,13.00
2018-12-17T10:14:34.919Z,13.93
2018-12-17T10:17:05.090Z,10.87
2018-12-17T10:19:34.777Z,12.30
2018-12-17T10:22:04.679Z,10.63
2018-12-17T10:24:34.370Z,10.90
2018-12-17T10:27:04.113Z,13.07
2018-12-17T10:29:34.527Z,11.20
2018-12-17T10:32:05.376Z,13.03
2018-12-17T10:34:35.605Z,13.17
2018-12-17T10:37:05.467Z,18.10
2018-12-17T10:39:35.792Z,16.10
2018-12-17T10:42:05.736Z,16.57
2018-12-17T10:44:35.522Z,16.30
2018-12-17T10:47:05.593Z,16.97
2018-12-17T10:49:35.523Z,16.83
2018-12-17T10:52:05.555Z,13.43
2018-12-17T10:54:35.477Z,15.33
2018-12-17T10:57:05.262Z,14.73
2018-12-17T10:59:35.054Z,19.37
2018-12-17T11:05:08.992Z,22.50
2018-12-17T11:07:38.961Z,18.83
2018-12-17T11:10:10.020Z,19.53
2018-12-17T11:12:40.013Z,19.20
2018-12-17T11:15:12.033Z,18.00
2018-12-17T11:17:42.007Z,19.27
2018-12-17T11:20:13.284Z,16.67
2018-12-17T11:22:43.858Z,17.53
2018-12-17T11:25:13.926Z,22.37
2018-12-17T11:27:44.359Z,20.50
2018-12-17T11:30:14.215Z,19.30
2018-12-17T11:32:44.874Z,17.03
2018-12-17T11:35:14.879Z,14.87
2018-12-17T11:37:44.722Z,17.00
2018-12-17T11:40:14.537Z,18.17
2018-12-17T11:42:44.433Z,17.63
2018-12-17T11:45:15.042Z,17.47
2018-12-17T11:47:44.925Z,18.00
2018-12-17T11:50:14.582Z,16.70
2018-12-17T11:52:48.645Z,20.27
2018-12-17T11:55:18.400Z,22.03
2018-12-17T11:58:05.414Z,18.70
2018-12-17T12:00:35.240Z,16.17
2018-12-17T12:03:04.968Z,17.77
2018-12-17T12:05:34.707Z,16.20
2018-12-17T12:08:04.662Z,19.40
2018-12-17T12:10:34.400Z,15.87
2018-12-17T12:13:04.408Z,16.27
2018-12-17T12:15:34.304Z,18.67
2018-12-17T12:18:04.169Z,15.47
2018-12-17T12:20:34.594Z,11.23
2018-12-17T12:23:06.064Z,17.37
2018-12-17T12:25:35.838Z,15.17
2018-12-17T12:28:05.637Z,13.70
2018-12-17T12:30:35.291Z,13.37
2018-12-17T12:33:06.392Z,17.80
2018-12-17T12:35:36.873Z,16.27
2018-12-17T12:38:06.781Z,18.30
2018-12-17T12:40:36.471Z,20.87
2018-12-17T12:43:06.503Z,22.57
2018-12-17T12:45:36.442Z,14.97
2018-12-17T12:48:06.408Z,14.53
2018-12-17T12:50:36.292Z,17.03
2018-12-17T12:53:06.168Z,19.70
2018-12-17T12:55:35.905Z,20.57
2018-12-17T12:58:05.811Z,18.30
2018-12-17T13:00:35.603Z,18.70
2018-12-17T13:03:06.003Z,15.93
2018-12-17T13:05:35.689Z,15.60
2018-12-17T13:08:05.660Z,13.77
2018-12-17T13:10:35.429Z,13.00
2018-12-17T13:13:05.355Z,12.83
2018-12-17T13:15:35.397Z,14.43
2018-12-17T13:18:05.607Z,14.43
2018-12-17T13:20:35.803Z,16.67
2018-12-17T13:23:05.763Z,18.93
2018-12-17T13:25:41.021Z,17.30
2018-12-17T13:28:10.897Z,14.43
2018-12-17T13:30:40.650Z,12.57
2018-12-17T13:33:10.407Z,16.90
2018-12-17T13:35:40.197Z,10.60
2018-12-17T13:38:10.012Z,13.90
2018-12-17T13:40:39.860Z,10.93
2018-12-17T13:43:09.766Z,14.30
2018-12-17T13:45:39.568Z,11.87
2018-12-17T13:48:09.266Z,11.23
2018-12-17T13:50:41.038Z,11.63
2018-12-17T13:53:16.137Z,12.83
2018-12-17T13:55:45.932Z,15.90
2018-12-17T13:58:15.797Z,10.23
2018-12-17T14:00:45.541Z,16.27
2018-12-17T14:03:15.508Z,11.17
2018-12-17T14:05:45.341Z,15.77
2018-12-17T14:08:15.280Z,12.10
2018-12-17T14:10:50.911Z,14.10
2018-12-17T14:13:20.676Z,13.50
2018-12-17T14:15:51.610Z,10.83
2018-12-17T14:18:27.250Z,13.67
2018-12-17T14:21:02.267Z,15.17
2018-12-17T14:23:32.084Z,13.07
2018-12-17T14:26:01.949Z,12.87
2018-12-17T14:28:31.871Z,10.03
2018-12-17T14:31:01.847Z,12.20
2018-12-17T14:33:31.861Z,15.07
2018-12-17T14:36:10.833Z,10.83
2018-12-17T14:38:40.916Z,14.30
2018-12-17T14:41:10.780Z,12.50
2018-12-17T14:43:40.641Z,12.47
2018-12-17T14:46:11.405Z,15.33
2018-12-17T14:48:41.287Z,15.10
2018-12-17T14:51:11.819Z,12.23
2018-12-17T14:53:41.816Z,9.87
2018-12-17T14:56:11.721Z,15.83
2018-12-17T14:58:44.614Z,22.97
2018-12-17T15:01:13.294Z,17.50
2018-12-17T15:03:43.170Z,11.17
2018-12-17T15:06:13.640Z,13.90
2018-12-17T15:08:43.358Z,15.63
2018-12-17T15:11:13.056Z,19.37
2018-12-17T15:13:42.993Z,15.57
2018-12-17T15:16:12.900Z,16.83
2018-12-17T15:18:42.964Z,15.17
2018-12-17T15:21:12.944Z,17.37
2018-12-17T15:23:42.744Z,15.37
2018-12-17T15:26:12.769Z,12.80
2018-12-17T15:28:42.600Z,15.23
2018-12-17T15:31:12.619Z,16.43
2018-12-17T15:33:42.595Z,13.67
2018-12-17T15:36:12.381Z,14.63
2018-12-17T15:38:42.165Z,16.53
2018-12-17T15:41:12.108Z,14.07
2018-12-17T15:43:42.720Z,20.03
2018-12-17T15:46:12.446Z,14.67
2018-12-17T15:48:42.292Z,18.40
2018-12-17T15:51:12.087Z,13.70
2018-12-17T15:53:42.011Z,14.50
2018-12-17T15:56:11.972Z,17.03
2018-12-17T15:58:41.938Z,16.57
2018-12-17T16:01:11.737Z,17.77
2018-12-17T16:03:41.466Z,21.87
2018-12-17T16:06:11.237Z,18.83
2018-12-17T16:08:41.206Z,17.63
2018-12-17T16:11:11.474Z,21.23
2018-12-17T16:13:41.877Z,14.23
2018-12-17T16:16:11.697Z,18.47
2018-12-17T16:18:42.117Z,20.47
2018-12-17T16:21:12.001Z,21.67
2018-12-17T16:23:41.835Z,17.00
2018-12-17T16:26:11.713Z,18.87
2018-12-17T16:28:41.557Z,16.83
2018-12-17T16:31:11.354Z,15.13
2018-12-17T16:33:41.814Z,18.03
2018-12-17T16:36:11.905Z,10.53
2018-12-17T16:38:41.734Z,18.67
2018-12-17T16:41:11.802Z,16.67
2018-12-17T16:43:41.764Z,20.37
2018-12-17T16:46:12.772Z,18.43
2018-12-17T16:48:43.383Z,21.93
2018-12-17T16:51:13.889Z,15.47
2018-12-17T16:53:43.749Z,20.67
2018-12-17T16:56:13.668Z,19.43
2018-12-17T16:58:44.288Z,16.57
2018-12-17T17:01:14.065Z,19.80
2018-12-17T17:03:43.968Z,20.90
2018-12-17T17:06:14.380Z,18.77
2018-12-17T17:08:44.235Z,18.50
2018-12-17T17:11:14.706Z,16.70
2018-12-17T17:13:45.343Z,17.03
2018-12-17T17:16:16.225Z,19.13
2018-12-17T17:18:46.001Z,17.07
2018-12-17T17:21:15.812Z,14.10
2018-12-17T17:23:45.989Z,12.77
2018-12-17T17:26:16.011Z,13.57
2018-12-17T17:28:46.790Z,13.10
2018-12-17T17:31:17.347Z,11.50
2018-12-17T17:33:47.800Z,14.30
2018-12-17T17:36:17.577Z,16.00
2018-12-17T17:38:47.486Z,13.90
2018-12-17T17:41:17.222Z,15.63
2018-12-17T17:43:47.024Z,13.73
2018-12-17T17:46:17.294Z,15.53
2018-12-17T17:48:47.111Z,15.77
2018-12-17T17:51:17.271Z,20.40
2018-12-17T17:53:48.470Z,18.80
2018-12-17T17:56:18.233Z,20.30
2018-12-17T17:58:48.326Z,15.87
2018-12-17T18:01:18.153Z,20.20
2018-12-17T18:03:48.010Z,18.37
2018-12-17T18:06:18.090Z,15.93
2018-12-17T18:08:48.461Z,19.20
2018-12-17T18:11:18.287Z,20.87
2018-12-17T18:13:48.148Z,21.83
2018-12-17T18:16:17.897Z,23.33
2018-12-17T18:18:47.529Z,24.33
2018-12-17T18:21:17.366Z,22.73
2018-12-17T18:23:47.245Z,17.53
2018-12-17T18:26:17.001Z,17.60
2018-12-17T18:28:47.075Z,20.37
2018-12-17T18:31:17.509Z,24.63
2018-12-17T18:33:47.306Z,22.20
2018-12-17T18:36:17.182Z,18.93
2018-12-17T18:38:46.991Z,14.87
2018-12-17T18:41:16.829Z,18.33
2018-12-17T18:43:46.520Z,18.17
2018-12-17T18:46:16.350Z,19.27
2018-12-17T18:48:46.367Z,20.20
2018-12-17T18:51:16.318Z,16.00
2018-12-17T18:53:46.966Z,21.37
2018-12-17T18:56:16.813Z,23.93
2018-12-17T18:58:46.593Z,24.30
2018-12-17T19:01:16.620Z,21.50
2018-12-17T19:03:46.710Z,23.67
2018-12-17T19:06:16.999Z,25.23
2018-12-17T19:08:46.886Z,23.00
2018-12-17T19:11:16.831Z,18.90
2018-12-17T19:13:46.600Z,27.47
2018-12-17T19:16:16.326Z,23.37
2018-12-17T19:18:46.348Z,24.83
2018-12-17T19:21:16.150Z,23.17
2018-12-17T19:23:45.967Z,17.40
2018-12-17T19:26:15.842Z,30.37
2018-12-17T19:28:45.854Z,17.40
2018-12-17T19:34:08.318Z,22.10
2018-12-17T19:36:38.106Z,19.70
2018-12-17T19:39:09.393Z,24.10
2018-12-17T19:41:39.568Z,19.17
2018-12-17T19:44:09.441Z,22.23
2018-12-17T19:46:39.488Z,22.77
2018-12-17T19:49:09.399Z,20.27
2018-12-17T19:51:39.317Z,21.20
2018-12-17T19:54:09.137Z,22.27
2018-12-17T19:56:39.108Z,20.63
2018-12-17T19:59:09.120Z,25.90
2018-12-17T20:01:38.973Z,24.27
2018-12-17T20:04:08.681Z,22.60
2018-12-17T20:06:38.613Z,19.90
2018-12-17T20:09:08.753Z,19.80
2018-12-17T20:11:38.678Z,19.00
2018-12-17T20:14:08.461Z,19.67
2018-12-17T20:16:38.229Z,21.23
2018-12-17T20:19:08.644Z,21.93
2018-12-17T20:21:38.598Z,16.60
2018-12-17T20:24:08.507Z,19.33
2018-12-17T20:26:38.405Z,19.90
2018-12-17T20:29:08.196Z,20.67
2018-12-17T20:31:38.103Z,19.07
2018-12-17T20:34:08.474Z,21.67
2018-12-17T20:36:38.774Z,20.57
2018-12-17T20:39:09.451Z,21.20
2018-12-17T20:41:39.559Z,20.20
2018-12-17T20:44:09.445Z,18.33
2018-12-17T20:46:39.178Z,19.73
2018-12-17T20:49:09.021Z,21.30
2018-12-17T20:51:39.160Z,20.83
2018-12-17T20:54:08.924Z,22.47
2018-12-17T20:56:38.685Z,25.10
2018-12-17T20:59:08.552Z,21.23
2018-12-17T21:01:38.481Z,20.30
2018-12-17T21:04:08.275Z,29.73
2018-12-17T21:06:38.389Z,25.13
2018-12-17T21:09:09.789Z,29.07
2018-12-17T21:11:39.688Z,21.37
2018-12-17T21:14:09.609Z,27.77
2018-12-17T21:16:39.533Z,28.73
2018-12-17T21:19:09.446Z,30.23
2018-12-17T21:21:39.464Z,23.57
2018-12-17T21:24:09.215Z,27.03
2018-12-17T21:26:38.969Z,30.67
2018-12-17T21:29:09.570Z,27.40
2018-12-17T21:31:39.509Z,20.70
2018-12-17T21:34:09.371Z,25.87
2018-12-17T21:36:39.436Z,26.00
2018-12-17T21:39:09.622Z,23.67
2018-12-17T21:41:39.582Z,23.73
2018-12-17T21:44:09.431Z,24.83
2018-12-17T21:46:39.337Z,20.33
2018-12-17T21:49:09.397Z,19.80
2018-12-17T21:51:39.507Z,20.40
2018-12-17T21:54:09.590Z,19.47
2018-12-17T21:56:39.892Z,21.73
2018-12-17T21:59:09.874Z,25.13
2018-12-17T22:01:39.928Z,21.13
2018-12-17T22:04:09.951Z,17.97
2018-12-17T22:06:39.813Z,17.60
2018-12-17T22:09:09.759Z,17.57
2018-12-17T22:11:39.572Z,20.23
2018-12-17T22:14:09.416Z,21.83
2018-12-17T22:16:39.330Z,16.77
2018-12-17T22:19:09.155Z,18.17
2018-12-17T22:21:39.256Z,19.77
2018-12-17T22:24:08.930Z,18.03
2018-12-17T22:26:39.199Z,19.67
2018-12-17T22:29:09.131Z,19.67
2018-12-17T22:31:39.352Z,13.87
2018-12-17T22:34:09.188Z,20.07
2018-12-17T22:36:39.748Z,19.23
2018-12-17T22:39:09.465Z,17.37
2018-12-17T22:41:39.429Z,19.60
2018-12-17T22:44:09.403Z,22.80
2018-12-17T22:46:39.158Z,14.60
2018-12-17T22:49:09.618Z,17.77
2018-12-17T22:51:39.530Z,17.73
2018-12-17T22:54:09.408Z,22.30
2018-12-17T22:56:39.207Z,15.90
2018-12-17T22:59:08.988Z,17.90
2018-12-17T23:01:38.805Z,20.10
2018-12-17T23:04:09.592Z,21.47
2018-12-17T23:06:39.596Z,20.33
2018-12-17T23:09:08.383Z,15.40
2018-12-17T23:12:00.227Z,18.60
2018-12-17T23:14:47.203Z,15.83
2018-12-17T23:17:33.825Z,16.20
2018-12-17T23:20:04.780Z,17.73
2018-12-17T23:22:35.048Z,22.20
2018-12-17T23:25:05.802Z,20.07
2018-12-17T23:27:36.561Z,14.80
2018-12-17T23:30:09.201Z,17.83
2018-12-17T23:32:39.024Z,20.70
2018-12-17T23:35:09.600Z,15.73
2018-12-17T23:37:39.522Z,16.50
2018-12-17T23:40:10.293Z,22.97
2018-12-17T23:42:41.417Z,15.70
2018-12-17T23:45:12.002Z,15.70
2018-12-17T23:47:41.783Z,15.83
2018-12-17T23:50:11.563Z,22.60
2018-12-17T23:52:41.614Z,15.23
2018-12-17T23:55:11.541Z,19.20
2018-12-17T23:57:41.257Z,16.40
